sensor_id;sensor_type;location;lat;lon;timestamp;P1;durP1;ratioP1;P2;durP2;ratioP2
78072;SDS011;67281;48.770;11.440;2023-02-28T00:00:52;5.53;;;3.33;;
78072;SDS011;67281;48.770;11.440;2023-02-28T00:03:19;4.50;;;3.27;;
78072;SDS011;67281;48.770;11.440;2023-02-28T00:05:46;5.43;;;3.13;;
78072;SDS011;67281;48.770;11.440;2023-02-28T00:08:13;4.53;;;3.33;;
78072;SDS011;67281;48.770;11.440;2023-02-28T00:10:39;3.70;;;3.07;;
78072;SDS011;67281;48.770;11.440;2023-02-28T00:13:06;5.47;;;3.20;;
78072;SDS011;67281;48.770;11.440;2023-02-28T00:15:33;3.93;;;3.33;;
78072;SDS011;67281;48.770;11.440;2023-02-28T00:18:01;4.93;;;3.50;;
78072;SDS011;67281;48.770;11.440;2023-02-28T00:20:28;3.83;;;3.40;;
78072;SDS011;67281;48.770;11.440;2023-02-28T00:22:55;4.33;;;3.13;;
78072;SDS011;67281;48.770;11.440;2023-02-28T00:25:23;4.37;;;2.90;;
78072;SDS011;67281;48.770;11.440;2023-02-28T00:27:51;4.67;;;3.43;;
78072;SDS011;67281;48.770;11.440;2023-02-28T00:30:19;3.53;;;3.10;;
78072;SDS011;67281;48.770;11.440;2023-02-28T00:32:47;4.13;;;3.33;;
78072;SDS011;67281;48.770;11.440;2023-02-28T00:35:15;3.27;;;2.93;;
78072;SDS011;67281;48.770;11.440;2023-02-28T00:37:42;4.73;;;3.50;;
78072;SDS011;67281;48.770;11.440;2023-02-28T00:40:10;4.27;;;3.23;;
78072;SDS011;67281;48.770;11.440;2023-02-28T00:42:38;4.37;;;3.37;;
78072;SDS011;67281;48.770;11.440;2023-02-28T00:45:05;6.10;;;3.47;;
78072;SDS011;67281;48.770;11.440;2023-02-28T00:47:33;3.57;;;3.27;;
78072;SDS011;67281;48.770;11.440;2023-02-28T00:50:00;3.67;;;3.30;;
78072;SDS011;67281;48.770;11.440;2023-02-28T00:52:27;4.77;;;3.33;;
78072;SDS011;67281;48.770;11.440;2023-02-28T00:54:53;4.83;;;2.83;;
78072;SDS011;67281;48.770;11.440;2023-02-28T00:57:20;3.97;;;3.30;;
78072;SDS011;67281;48.770;11.440;2023-02-28T00:59:47;3.90;;;3.30;;
78072;SDS011;67281;48.770;11.440;2023-02-28T01:02:14;4.70;;;3.20;;
78072;SDS011;67281;48.770;11.440;2023-02-28T01:04:41;3.87;;;3.47;;
78072;SDS011;67281;48.770;11.440;2023-02-28T01:07:08;3.93;;;3.53;;
78072;SDS011;67281;48.770;11.440;2023-02-28T01:09:34;3.70;;;3.30;;
78072;SDS011;67281;48.770;11.440;2023-02-28T01:12:01;3.33;;;3.03;;
78072;SDS011;67281;48.770;11.440;2023-02-28T01:14:28;3.30;;;3.00;;
78072;SDS011;67281;48.770;11.440;2023-02-28T01:16:55;3.17;;;2.83;;
78072;SDS011;67281;48.770;11.440;2023-02-28T01:19:22;3.47;;;3.13;;
78072;SDS011;67281;48.770;11.440;2023-02-28T01:21:49;3.20;;;2.83;;
78072;SDS011;67281;48.770;11.440;2023-02-28T01:24:15;4.20;;;3.30;;
78072;SDS011;67281;48.770;11.440;2023-02-28T01:26:42;3.50;;;3.17;;
78072;SDS011;67281;48.770;11.440;2023-02-28T01:29:08;3.90;;;3.17;;
78072;SDS011;67281;48.770;11.440;2023-02-28T01:31:35;4.10;;;3.00;;
78072;SDS011;67281;48.770;11.440;2023-02-28T01:34:02;4.00;;;3.40;;
78072;SDS011;67281;48.770;11.440;2023-02-28T01:36:29;3.80;;;3.50;;
78072;SDS011;67281;48.770;11.440;2023-02-28T01:38:56;5.43;;;3.43;;
78072;SDS011;67281;48.770;11.440;2023-02-28T01:41:24;4.00;;;3.07;;
78072;SDS011;67281;48.770;11.440;2023-02-28T01:43:58;3.70;;;3.40;;
78072;SDS011;67281;48.770;11.440;2023-02-28T01:46:25;4.23;;;3.60;;
78072;SDS011;67281;48.770;11.440;2023-02-28T01:48:54;5.20;;;3.50;;
78072;SDS011;67281;48.770;11.440;2023-02-28T01:51:27;4.87;;;3.53;;
78072;SDS011;67281;48.770;11.440;2023-02-28T01:53:59;4.40;;;3.60;;
78072;SDS011;67281;48.770;11.440;2023-02-28T01:56:30;3.43;;;3.13;;
78072;SDS011;67281;48.770;11.440;2023-02-28T01:59:00;3.90;;;3.50;;
78072;SDS011;67281;48.770;11.440;2023-02-28T02:01:27;4.20;;;3.50;;
78072;SDS011;67281;48.770;11.440;2023-02-28T02:03:57;4.20;;;3.30;;
78072;SDS011;67281;48.770;11.440;2023-02-28T02:06:28;4.43;;;3.70;;
78072;SDS011;67281;48.770;11.440;2023-02-28T02:09:06;4.17;;;3.53;;
78072;SDS011;67281;48.770;11.440;2023-02-28T02:11:33;4.90;;;3.60;;
78072;SDS011;67281;48.770;11.440;2023-02-28T02:19:33;5.43;;;3.47;;
78072;SDS011;67281;48.770;11.440;2023-02-28T02:25:18;5.70;;;4.13;;
78072;SDS011;67281;48.770;11.440;2023-02-28T02:28:04;4.00;;;3.60;;
78072;SDS011;67281;48.770;11.440;2023-02-28T02:33:41;3.93;;;3.53;;
78072;SDS011;67281;48.770;11.440;2023-02-28T02:36:33;4.80;;;3.40;;
78072;SDS011;67281;48.770;11.440;2023-02-28T02:39:16;5.33;;;3.70;;
78072;SDS011;67281;48.770;11.440;2023-02-28T02:41:50;4.60;;;3.83;;
78072;SDS011;67281;48.770;11.440;2023-02-28T02:47:24;5.00;;;3.90;;
78072;SDS011;67281;48.770;11.440;2023-02-28T02:49:55;4.13;;;3.47;;
78072;SDS011;67281;48.770;11.440;2023-02-28T02:52:27;5.53;;;4.03;;
78072;SDS011;67281;48.770;11.440;2023-02-28T02:55:03;5.27;;;4.20;;
78072;SDS011;67281;48.770;11.440;2023-02-28T02:57:36;5.80;;;4.10;;
78072;SDS011;67281;48.770;11.440;2023-02-28T03:00:06;4.33;;;3.93;;
78072;SDS011;67281;48.770;11.440;2023-02-28T03:02:35;5.67;;;4.00;;
78072;SDS011;67281;48.770;11.440;2023-02-28T03:05:06;4.53;;;4.10;;
78072;SDS011;67281;48.770;11.440;2023-02-28T03:07:40;5.33;;;4.03;;
78072;SDS011;67281;48.770;11.440;2023-02-28T03:13:05;4.10;;;3.70;;
78072;SDS011;67281;48.770;11.440;2023-02-28T03:21:27;4.57;;;4.07;;
78072;SDS011;67281;48.770;11.440;2023-02-28T03:24:21;4.87;;;4.40;;
78072;SDS011;67281;48.770;11.440;2023-02-28T03:27:12;4.90;;;3.97;;
78072;SDS011;67281;48.770;11.440;2023-02-28T03:29:42;5.93;;;4.07;;
78072;SDS011;67281;48.770;11.440;2023-02-28T03:32:16;5.67;;;4.33;;
78072;SDS011;67281;48.770;11.440;2023-02-28T03:34:54;5.27;;;4.10;;
78072;SDS011;67281;48.770;11.440;2023-02-28T03:37:26;6.83;;;4.63;;
78072;SDS011;67281;48.770;11.440;2023-02-28T03:39:59;4.57;;;3.80;;
78072;SDS011;67281;48.770;11.440;2023-02-28T03:42:33;4.90;;;4.33;;
78072;SDS011;67281;48.770;11.440;2023-02-28T03:45:19;5.00;;;4.50;;
78072;SDS011;67281;48.770;11.440;2023-02-28T03:47:54;6.33;;;4.57;;
78072;SDS011;67281;48.770;11.440;2023-02-28T03:50:47;4.83;;;4.33;;
78072;SDS011;67281;48.770;11.440;2023-02-28T03:53:23;4.87;;;4.10;;
78072;SDS011;67281;48.770;11.440;2023-02-28T03:56:17;6.00;;;4.43;;
78072;SDS011;67281;48.770;11.440;2023-02-28T03:58:54;6.13;;;4.37;;
78072;SDS011;67281;48.770;11.440;2023-02-28T04:01:30;5.13;;;4.30;;
78072;SDS011;67281;48.770;11.440;2023-02-28T04:04:02;5.07;;;4.57;;
78072;SDS011;67281;48.770;11.440;2023-02-28T04:06:30;4.77;;;4.30;;
78072;SDS011;67281;48.770;11.440;2023-02-28T04:08:58;5.40;;;4.90;;
78072;SDS011;67281;48.770;11.440;2023-02-28T04:14:04;5.93;;;4.57;;
78072;SDS011;67281;48.770;11.440;2023-02-28T04:16:32;6.33;;;4.87;;
78072;SDS011;67281;48.770;11.440;2023-02-28T04:19:02;6.83;;;4.50;;
78072;SDS011;67281;48.770;11.440;2023-02-28T04:21:50;6.10;;;5.00;;
78072;SDS011;67281;48.770;11.440;2023-02-28T04:24:27;5.30;;;4.57;;
78072;SDS011;67281;48.770;11.440;2023-02-28T04:26:55;5.43;;;4.83;;
78072;SDS011;67281;48.770;11.440;2023-02-28T04:29:24;6.30;;;4.47;;
78072;SDS011;67281;48.770;11.440;2023-02-28T04:31:53;7.43;;;5.00;;
78072;SDS011;67281;48.770;11.440;2023-02-28T04:34:28;6.13;;;4.60;;
78072;SDS011;67281;48.770;11.440;2023-02-28T04:36:56;5.40;;;4.90;;
78072;SDS011;67281;48.770;11.440;2023-02-28T04:39:37;6.60;;;5.13;;
78072;SDS011;67281;48.770;11.440;2023-02-28T04:42:05;6.23;;;5.03;;
78072;SDS011;67281;48.770;11.440;2023-02-28T04:44:31;6.40;;;5.23;;
78072;SDS011;67281;48.770;11.440;2023-02-28T04:46:58;5.17;;;4.40;;
78072;SDS011;67281;48.770;11.440;2023-02-28T04:49:25;6.30;;;5.17;;
78072;SDS011;67281;48.770;11.440;2023-02-28T04:51:52;6.20;;;5.00;;
78072;SDS011;67281;48.770;11.440;2023-02-28T04:54:19;6.07;;;5.10;;
78072;SDS011;67281;48.770;11.440;2023-02-28T04:56:46;5.60;;;5.00;;
78072;SDS011;67281;48.770;11.440;2023-02-28T04:59:14;6.50;;;4.67;;
78072;SDS011;67281;48.770;11.440;2023-02-28T05:01:44;5.53;;;4.97;;
78072;SDS011;67281;48.770;11.440;2023-02-28T05:04:12;7.57;;;5.20;;
78072;SDS011;67281;48.770;11.440;2023-02-28T05:06:39;5.63;;;4.77;;
78072;SDS011;67281;48.770;11.440;2023-02-28T05:09:06;5.80;;;4.80;;
78072;SDS011;67281;48.770;11.440;2023-02-28T05:11:33;6.73;;;5.00;;
78072;SDS011;67281;48.770;11.440;2023-02-28T05:14:06;5.40;;;4.80;;
78072;SDS011;67281;48.770;11.440;2023-02-28T05:16:37;5.40;;;4.83;;
78072;SDS011;67281;48.770;11.440;2023-02-28T05:19:04;8.27;;;5.10;;
78072;SDS011;67281;48.770;11.440;2023-02-28T05:21:35;6.00;;;5.40;;
78072;SDS011;67281;48.770;11.440;2023-02-28T05:24:05;6.50;;;5.63;;
78072;SDS011;67281;48.770;11.440;2023-02-28T05:26:35;6.73;;;5.27;;
78072;SDS011;67281;48.770;11.440;2023-02-28T05:29:03;7.10;;;5.40;;
78072;SDS011;67281;48.770;11.440;2023-02-28T05:31:31;8.07;;;5.53;;
78072;SDS011;67281;48.770;11.440;2023-02-28T05:33:58;9.37;;;6.20;;
78072;SDS011;67281;48.770;11.440;2023-02-28T05:36:26;7.93;;;7.23;;
78072;SDS011;67281;48.770;11.440;2023-02-28T05:38:53;6.73;;;5.60;;
78072;SDS011;67281;48.770;11.440;2023-02-28T05:41:19;7.60;;;5.67;;
78072;SDS011;67281;48.770;11.440;2023-02-28T05:43:47;6.77;;;6.03;;
78072;SDS011;67281;48.770;11.440;2023-02-28T05:46:14;7.20;;;5.90;;
78072;SDS011;67281;48.770;11.440;2023-02-28T05:48:42;7.27;;;6.03;;
78072;SDS011;67281;48.770;11.440;2023-02-28T05:51:11;11.17;;;7.00;;
78072;SDS011;67281;48.770;11.440;2023-02-28T05:53:38;6.10;;;5.50;;
78072;SDS011;67281;48.770;11.440;2023-02-28T05:56:05;9.47;;;6.23;;
78072;SDS011;67281;48.770;11.440;2023-02-28T05:58:32;6.67;;;6.07;;
78072;SDS011;67281;48.770;11.440;2023-02-28T06:00:59;7.63;;;6.20;;
78072;SDS011;67281;48.770;11.440;2023-02-28T06:03:26;11.50;;;6.10;;
78072;SDS011;67281;48.770;11.440;2023-02-28T06:05:54;8.93;;;5.50;;
78072;SDS011;67281;48.770;11.440;2023-02-28T06:08:20;9.33;;;6.77;;
78072;SDS011;67281;48.770;11.440;2023-02-28T06:10:47;6.27;;;5.67;;
78072;SDS011;67281;48.770;11.440;2023-02-28T06:13:14;9.87;;;7.27;;
78072;SDS011;67281;48.770;11.440;2023-02-28T06:15:40;11.17;;;6.87;;
78072;SDS011;67281;48.770;11.440;2023-02-28T06:18:07;6.50;;;5.87;;
78072;SDS011;67281;48.770;11.440;2023-02-28T06:20:34;7.30;;;6.00;;
78072;SDS011;67281;48.770;11.440;2023-02-28T06:23:02;11.47;;;10.40;;
78072;SDS011;67281;48.770;11.440;2023-02-28T06:25:29;8.90;;;6.53;;
78072;SDS011;67281;48.770;11.440;2023-02-28T06:27:56;7.83;;;6.13;;
78072;SDS011;67281;48.770;11.440;2023-02-28T06:30:23;7.47;;;5.70;;
78072;SDS011;67281;48.770;11.440;2023-02-28T06:32:50;13.30;;;6.87;;
78072;SDS011;67281;48.770;11.440;2023-02-28T06:35:18;9.80;;;6.37;;
78072;SDS011;67281;48.770;11.440;2023-02-28T06:37:45;10.73;;;6.20;;
78072;SDS011;67281;48.770;11.440;2023-02-28T06:40:13;8.10;;;6.60;;
78072;SDS011;67281;48.770;11.440;2023-02-28T06:42:40;6.40;;;5.70;;
78072;SDS011;67281;48.770;11.440;2023-02-28T06:45:07;7.00;;;5.53;;
78072;SDS011;67281;48.770;11.440;2023-02-28T06:47:39;9.43;;;6.60;;
78072;SDS011;67281;48.770;11.440;2023-02-28T06:50:08;9.23;;;6.43;;
78072;SDS011;67281;48.770;11.440;2023-02-28T06:52:37;8.73;;;6.00;;
78072;SDS011;67281;48.770;11.440;2023-02-28T06:55:04;10.80;;;6.27;;
78072;SDS011;67281;48.770;11.440;2023-02-28T06:57:33;10.23;;;6.23;;
78072;SDS011;67281;48.770;11.440;2023-02-28T07:00:02;10.07;;;6.13;;
78072;SDS011;67281;48.770;11.440;2023-02-28T07:02:34;4.77;;;3.60;;
78072;SDS011;67281;48.770;11.440;2023-02-28T07:05:01;9.13;;;5.97;;
78072;SDS011;67281;48.770;11.440;2023-02-28T07:07:28;8.93;;;5.93;;
78072;SDS011;67281;48.770;11.440;2023-02-28T07:09:55;14.37;;;7.33;;
78072;SDS011;67281;48.770;11.440;2023-02-28T07:12:22;8.00;;;6.43;;
78072;SDS011;67281;48.770;11.440;2023-02-28T07:14:49;12.33;;;6.70;;
78072;SDS011;67281;48.770;11.440;2023-02-28T07:17:16;10.00;;;6.83;;
78072;SDS011;67281;48.770;11.440;2023-02-28T07:19:42;7.97;;;6.57;;
78072;SDS011;67281;48.770;11.440;2023-02-28T07:22:09;9.97;;;6.23;;
78072;SDS011;67281;48.770;11.440;2023-02-28T07:24:36;8.50;;;6.67;;
78072;SDS011;67281;48.770;11.440;2023-02-28T07:27:02;9.23;;;6.83;;
78072;SDS011;67281;48.770;11.440;2023-02-28T07:29:29;9.00;;;6.30;;
78072;SDS011;67281;48.770;11.440;2023-02-28T07:31:56;8.67;;;6.80;;
78072;SDS011;67281;48.770;11.440;2023-02-28T07:34:23;7.60;;;6.23;;
78072;SDS011;67281;48.770;11.440;2023-02-28T07:36:52;10.20;;;5.30;;
78072;SDS011;67281;48.770;11.440;2023-02-28T07:39:20;8.07;;;6.20;;
78072;SDS011;67281;48.770;11.440;2023-02-28T07:41:48;10.53;;;6.37;;
78072;SDS011;67281;48.770;11.440;2023-02-28T07:44:15;8.17;;;6.20;;
78072;SDS011;67281;48.770;11.440;2023-02-28T07:46:41;7.87;;;5.67;;
78072;SDS011;67281;48.770;11.440;2023-02-28T07:49:08;7.87;;;5.90;;
78072;SDS011;67281;48.770;11.440;2023-02-28T07:51:35;10.60;;;6.57;;
78072;SDS011;67281;48.770;11.440;2023-02-28T07:54:02;8.83;;;6.13;;
78072;SDS011;67281;48.770;11.440;2023-02-28T07:56:28;7.80;;;6.43;;
78072;SDS011;67281;48.770;11.440;2023-02-28T07:58:56;8.60;;;6.40;;
78072;SDS011;67281;48.770;11.440;2023-02-28T08:01:22;9.67;;;6.63;;
78072;SDS011;67281;48.770;11.440;2023-02-28T08:03:49;15.33;;;6.63;;
78072;SDS011;67281;48.770;11.440;2023-02-28T08:06:18;8.70;;;5.87;;
78072;SDS011;67281;48.770;11.440;2023-02-28T08:08:46;7.87;;;5.93;;
78072;SDS011;67281;48.770;11.440;2023-02-28T08:11:13;11.63;;;5.60;;
78072;SDS011;67281;48.770;11.440;2023-02-28T08:13:41;8.37;;;5.17;;
78072;SDS011;67281;48.770;11.440;2023-02-28T08:16:11;7.97;;;6.43;;
78072;SDS011;67281;48.770;11.440;2023-02-28T08:18:41;6.63;;;4.80;;
78072;SDS011;67281;48.770;11.440;2023-02-28T08:21:09;7.03;;;5.17;;
78072;SDS011;67281;48.770;11.440;2023-02-28T08:23:36;8.87;;;5.50;;
78072;SDS011;67281;48.770;11.440;2023-02-28T08:26:03;7.50;;;6.00;;
78072;SDS011;67281;48.770;11.440;2023-02-28T08:28:30;10.07;;;6.17;;
78072;SDS011;67281;48.770;11.440;2023-02-28T08:30:57;8.87;;;5.80;;
78072;SDS011;67281;48.770;11.440;2023-02-28T08:33:24;8.43;;;5.57;;
78072;SDS011;67281;48.770;11.440;2023-02-28T08:35:55;8.70;;;6.20;;
78072;SDS011;67281;48.770;11.440;2023-02-28T08:38:25;9.37;;;6.00;;
78072;SDS011;67281;48.770;11.440;2023-02-28T08:40:59;7.63;;;5.93;;
78072;SDS011;67281;48.770;11.440;2023-02-28T08:43:27;5.60;;;4.93;;
78072;SDS011;67281;48.770;11.440;2023-02-28T08:45:55;11.57;;;5.23;;
78072;SDS011;67281;48.770;11.440;2023-02-28T08:48:26;6.10;;;4.77;;
78072;SDS011;67281;48.770;11.440;2023-02-28T08:50:56;11.17;;;6.67;;
78072;SDS011;67281;48.770;11.440;2023-02-28T08:53:32;8.43;;;6.17;;
78072;SDS011;67281;48.770;11.440;2023-02-28T08:56:00;7.10;;;5.93;;
78072;SDS011;67281;48.770;11.440;2023-02-28T08:58:29;8.93;;;5.70;;
78072;SDS011;67281;48.770;11.440;2023-02-28T09:00:56;10.87;;;5.77;;
78072;SDS011;67281;48.770;11.440;2023-02-28T09:03:23;8.53;;;6.00;;
78072;SDS011;67281;48.770;11.440;2023-02-28T09:05:57;5.93;;;5.27;;
78072;SDS011;67281;48.770;11.440;2023-02-28T09:08:26;9.27;;;6.27;;
78072;SDS011;67281;48.770;11.440;2023-02-28T09:10:55;8.97;;;6.53;;
78072;SDS011;67281;48.770;11.440;2023-02-28T09:13:24;10.37;;;5.53;;
78072;SDS011;67281;48.770;11.440;2023-02-28T09:15:52;8.10;;;5.37;;
78072;SDS011;67281;48.770;11.440;2023-02-28T09:18:20;6.17;;;4.80;;
78072;SDS011;67281;48.770;11.440;2023-02-28T09:20:47;7.23;;;5.80;;
78072;SDS011;67281;48.770;11.440;2023-02-28T09:23:13;8.77;;;5.33;;
78072;SDS011;67281;48.770;11.440;2023-02-28T09:25:47;2.93;;;2.57;;
78072;SDS011;67281;48.770;11.440;2023-02-28T09:28:15;7.13;;;5.77;;
78072;SDS011;67281;48.770;11.440;2023-02-28T09:30:44;8.00;;;6.03;;
78072;SDS011;67281;48.770;11.440;2023-02-28T09:33:12;9.17;;;5.83;;
78072;SDS011;67281;48.770;11.440;2023-02-28T09:35:39;6.83;;;5.60;;
78072;SDS011;67281;48.770;11.440;2023-02-28T09:38:06;9.50;;;5.80;;
78072;SDS011;67281;48.770;11.440;2023-02-28T09:40:47;7.13;;;5.37;;
78072;SDS011;67281;48.770;11.440;2023-02-28T09:43:16;7.83;;;6.00;;
78072;SDS011;67281;48.770;11.440;2023-02-28T09:45:54;6.47;;;5.60;;
78072;SDS011;67281;48.770;11.440;2023-02-28T09:48:28;8.90;;;5.60;;
78072;SDS011;67281;48.770;11.440;2023-02-28T09:51:00;6.27;;;5.67;;
78072;SDS011;67281;48.770;11.440;2023-02-28T09:53:31;7.97;;;5.73;;
78072;SDS011;67281;48.770;11.440;2023-02-28T10:07:03;5.80;;;5.03;;
78072;SDS011;67281;48.770;11.440;2023-02-28T10:09:58;6.47;;;5.23;;
78072;SDS011;67281;48.770;11.440;2023-02-28T10:12:28;6.40;;;5.40;;
78072;SDS011;67281;48.770;11.440;2023-02-28T10:14:57;10.10;;;5.37;;
78072;SDS011;67281;48.770;11.440;2023-02-28T10:17:26;4.93;;;4.03;;
78072;SDS011;67281;48.770;11.440;2023-02-28T10:20:21;8.00;;;5.60;;
78072;SDS011;67281;48.770;11.440;2023-02-28T10:25:41;6.13;;;5.20;;
78072;SDS011;67281;48.770;11.440;2023-02-28T10:28:15;8.10;;;5.80;;
78072;SDS011;67281;48.770;11.440;2023-02-28T10:30:45;8.80;;;6.23;;
78072;SDS011;67281;48.770;11.440;2023-02-28T10:33:19;7.80;;;5.23;;
78072;SDS011;67281;48.770;11.440;2023-02-28T10:35:57;7.60;;;5.53;;
78072;SDS011;67281;48.770;11.440;2023-02-28T10:38:25;6.90;;;5.40;;
78072;SDS011;67281;48.770;11.440;2023-02-28T10:43:41;6.87;;;4.87;;
78072;SDS011;67281;48.770;11.440;2023-02-28T10:46:15;6.73;;;5.93;;
78072;SDS011;67281;48.770;11.440;2023-02-28T10:51:34;10.50;;;5.53;;
78072;SDS011;67281;48.770;11.440;2023-02-28T10:54:14;6.00;;;5.40;;
78072;SDS011;67281;48.770;11.440;2023-02-28T10:56:42;6.97;;;5.07;;
78072;SDS011;67281;48.770;11.440;2023-02-28T10:59:43;7.93;;;5.67;;
78072;SDS011;67281;48.770;11.440;2023-02-28T11:02:08;6.60;;;5.30;;
78072;SDS011;67281;48.770;11.440;2023-02-28T11:05:01;6.63;;;3.97;;
78072;SDS011;67281;48.770;11.440;2023-02-28T11:07:28;11.77;;;5.40;;
78072;SDS011;67281;48.770;11.440;2023-02-28T11:10:06;9.10;;;5.37;;
78072;SDS011;67281;48.770;11.440;2023-02-28T11:12:38;6.27;;;5.37;;
78072;SDS011;67281;48.770;11.440;2023-02-28T11:18:21;13.60;;;5.63;;
78072;SDS011;67281;48.770;11.440;2023-02-28T11:20:57;6.97;;;5.70;;
78072;SDS011;67281;48.770;11.440;2023-02-28T11:23:28;7.27;;;5.23;;
78072;SDS011;67281;48.770;11.440;2023-02-28T11:26:00;8.37;;;6.17;;
78072;SDS011;67281;48.770;11.440;2023-02-28T11:28:30;10.37;;;5.83;;
78072;SDS011;67281;48.770;11.440;2023-02-28T11:31:20;6.70;;;5.87;;
78072;SDS011;67281;48.770;11.440;2023-02-28T11:33:51;10.47;;;5.73;;
78072;SDS011;67281;48.770;11.440;2023-02-28T11:36:27;6.57;;;5.70;;
78072;SDS011;67281;48.770;11.440;2023-02-28T11:39:08;8.98;;;6.25;;
78072;SDS011;67281;48.770;11.440;2023-02-28T11:55:32;8.33;;;5.70;;
78072;SDS011;67281;48.770;11.440;2023-02-28T12:04:33;7.40;;;6.00;;
78072;SDS011;67281;48.770;11.440;2023-02-28T12:10:35;6.17;;;5.07;;
78072;SDS011;67281;48.770;11.440;2023-02-28T12:19:45;8.33;;;6.17;;
78072;SDS011;67281;48.770;11.440;2023-02-28T12:28:31;7.27;;;6.20;;
78072;SDS011;67281;48.770;11.440;2023-02-28T12:31:09;9.10;;;6.13;;
78072;SDS011;67281;48.770;11.440;2023-02-28T12:33:45;8.40;;;6.63;;
78072;SDS011;67281;48.770;11.440;2023-02-28T12:36:15;8.37;;;6.77;;
78072;SDS011;67281;48.770;11.440;2023-02-28T12:41:26;6.70;;;5.50;;
78072;SDS011;67281;48.770;11.440;2023-02-28T12:44:46;9.27;;;6.27;;
78072;SDS011;67281;48.770;11.440;2023-02-28T12:55:33;7.73;;;6.70;;
78072;SDS011;67281;48.770;11.440;2023-02-28T13:01:33;10.83;;;6.70;;
78072;SDS011;67281;48.770;11.440;2023-02-28T13:10:24;9.57;;;6.83;;
78072;SDS011;67281;48.770;11.440;2023-02-28T13:13:05;7.00;;;6.30;;
78072;SDS011;67281;48.770;11.440;2023-02-28T13:15:33;7.77;;;6.43;;
78072;SDS011;67281;48.770;11.440;2023-02-28T13:18:20;7.57;;;6.70;;
78072;SDS011;67281;48.770;11.440;2023-02-28T13:21:04;7.40;;;6.70;;
78072;SDS011;67281;48.770;11.440;2023-02-28T13:29:14;9.90;;;6.57;;
78072;SDS011;67281;48.770;11.440;2023-02-28T13:34:36;9.13;;;6.50;;
78072;SDS011;67281;48.770;11.440;2023-02-28T13:39:51;7.37;;;6.47;;
78072;SDS011;67281;48.770;11.440;2023-02-28T13:42:31;17.33;;;7.47;;
78072;SDS011;67281;48.770;11.440;2023-02-28T13:45:26;9.27;;;6.73;;
78072;SDS011;67281;48.770;11.440;2023-02-28T13:50:34;10.30;;;7.17;;
78072;SDS011;67281;48.770;11.440;2023-02-28T14:05:05;14.23;;;7.37;;
78072;SDS011;67281;48.770;11.440;2023-02-28T14:07:45;9.53;;;6.70;;
78072;SDS011;67281;48.770;11.440;2023-02-28T14:10:31;7.03;;;6.13;;
78072;SDS011;67281;48.770;11.440;2023-02-28T14:13:55;11.83;;;6.70;;
78072;SDS011;67281;48.770;11.440;2023-02-28T14:16:14;11.43;;;7.10;;
78072;SDS011;67281;48.770;11.440;2023-02-28T14:18:51;9.40;;;6.80;;
78072;SDS011;67281;48.770;11.440;2023-02-28T14:21:26;8.43;;;6.03;;
78072;SDS011;67281;48.770;11.440;2023-02-28T14:24:00;8.33;;;6.43;;
78072;SDS011;67281;48.770;11.440;2023-02-28T14:34:55;7.77;;;6.90;;
78072;SDS011;67281;48.770;11.440;2023-02-28T14:37:40;7.73;;;6.90;;
78072;SDS011;67281;48.770;11.440;2023-02-28T14:40:19;12.03;;;6.97;;
78072;SDS011;67281;48.770;11.440;2023-02-28T14:42:57;10.60;;;6.80;;
78072;SDS011;67281;48.770;11.440;2023-02-28T14:45:29;8.80;;;6.70;;
78072;SDS011;67281;48.770;11.440;2023-02-28T14:47:58;8.00;;;6.50;;
78072;SDS011;67281;48.770;11.440;2023-02-28T14:50:31;7.87;;;6.40;;
78072;SDS011;67281;48.770;11.440;2023-02-28T14:53:02;8.30;;;6.87;;
78072;SDS011;67281;48.770;11.440;2023-02-28T14:55:30;10.77;;;6.50;;
78072;SDS011;67281;48.770;11.440;2023-02-28T14:58:00;11.47;;;7.57;;
78072;SDS011;67281;48.770;11.440;2023-02-28T15:00:31;7.57;;;6.57;;
78072;SDS011;67281;48.770;11.440;2023-02-28T15:03:00;7.90;;;6.73;;
78072;SDS011;67281;48.770;11.440;2023-02-28T15:05:31;11.30;;;7.40;;
78072;SDS011;67281;48.770;11.440;2023-02-28T15:08:01;10.07;;;7.13;;
78072;SDS011;67281;48.770;11.440;2023-02-28T15:10:31;8.80;;;7.90;;
78072;SDS011;67281;48.770;11.440;2023-02-28T15:13:01;8.43;;;7.53;;
78072;SDS011;67281;48.770;11.440;2023-02-28T15:15:40;10.30;;;7.10;;
78072;SDS011;67281;48.770;11.440;2023-02-28T15:21:01;11.37;;;7.67;;
78072;SDS011;67281;48.770;11.440;2023-02-28T15:23:32;16.17;;;8.17;;
78072;SDS011;67281;48.770;11.440;2023-02-28T15:26:01;10.30;;;7.07;;
78072;SDS011;67281;48.770;11.440;2023-02-28T15:28:29;8.63;;;6.83;;
78072;SDS011;67281;48.770;11.440;2023-02-28T15:31:01;9.70;;;7.00;;
78072;SDS011;67281;48.770;11.440;2023-02-28T15:33:53;13.60;;;7.03;;
78072;SDS011;67281;48.770;11.440;2023-02-28T15:36:30;9.23;;;7.33;;
78072;SDS011;67281;48.770;11.440;2023-02-28T15:39:18;11.17;;;6.57;;
78072;SDS011;67281;48.770;11.440;2023-02-28T15:41:49;12.43;;;7.70;;
78072;SDS011;67281;48.770;11.440;2023-02-28T15:44:27;11.20;;;7.23;;
78072;SDS011;67281;48.770;11.440;2023-02-28T15:49:28;10.57;;;7.97;;
78072;SDS011;67281;48.770;11.440;2023-02-28T15:52:39;10.30;;;7.40;;
78072;SDS011;67281;48.770;11.440;2023-02-28T15:55:26;9.83;;;6.97;;
78072;SDS011;67281;48.770;11.440;2023-02-28T15:57:56;10.40;;;7.60;;
78072;SDS011;67281;48.770;11.440;2023-02-28T16:00:31;10.20;;;7.57;;
78072;SDS011;67281;48.770;11.440;2023-02-28T16:03:23;10.43;;;7.80;;
78072;SDS011;67281;48.770;11.440;2023-02-28T16:06:09;15.10;;;7.93;;
78072;SDS011;67281;48.770;11.440;2023-02-28T16:08:53;7.67;;;6.47;;
78072;SDS011;67281;48.770;11.440;2023-02-28T16:11:20;8.57;;;6.50;;
78072;SDS011;67281;48.770;11.440;2023-02-28T16:13:51;8.60;;;6.87;;
78072;SDS011;67281;48.770;11.440;2023-02-28T16:16:23;10.13;;;6.70;;
78072;SDS011;67281;48.770;11.440;2023-02-28T16:18:51;8.67;;;7.07;;
78072;SDS011;67281;48.770;11.440;2023-02-28T16:21:19;10.40;;;7.43;;
78072;SDS011;67281;48.770;11.440;2023-02-28T16:23:46;8.37;;;6.53;;
78072;SDS011;67281;48.770;11.440;2023-02-28T16:26:18;9.77;;;6.97;;
78072;SDS011;67281;48.770;11.440;2023-02-28T16:28:51;8.33;;;6.67;;
78072;SDS011;67281;48.770;11.440;2023-02-28T16:31:21;7.60;;;6.57;;
78072;SDS011;67281;48.770;11.440;2023-02-28T16:33:48;8.97;;;6.90;;
78072;SDS011;67281;48.770;11.440;2023-02-28T16:36:16;11.77;;;7.30;;
78072;SDS011;67281;48.770;11.440;2023-02-28T16:38:48;11.67;;;7.27;;
78072;SDS011;67281;48.770;11.440;2023-02-28T16:41:16;9.17;;;7.60;;
78072;SDS011;67281;48.770;11.440;2023-02-28T16:43:46;9.13;;;7.57;;
78072;SDS011;67281;48.770;11.440;2023-02-28T16:46:15;9.90;;;7.23;;
78072;SDS011;67281;48.770;11.440;2023-02-28T16:48:43;8.90;;;7.40;;
78072;SDS011;67281;48.770;11.440;2023-02-28T16:51:18;13.07;;;7.77;;
78072;SDS011;67281;48.770;11.440;2023-02-28T16:53:48;9.60;;;7.17;;
78072;SDS011;67281;48.770;11.440;2023-02-28T16:56:18;10.80;;;7.63;;
78072;SDS011;67281;48.770;11.440;2023-02-28T16:58:48;8.13;;;7.03;;
78072;SDS011;67281;48.770;11.440;2023-02-28T17:01:17;11.60;;;6.40;;
78072;SDS011;67281;48.770;11.440;2023-02-28T17:03:48;8.60;;;7.20;;
78072;SDS011;67281;48.770;11.440;2023-02-28T17:06:17;8.07;;;7.03;;
78072;SDS011;67281;48.770;11.440;2023-02-28T17:08:51;10.80;;;7.00;;
78072;SDS011;67281;48.770;11.440;2023-02-28T17:11:18;9.40;;;7.30;;
78072;SDS011;67281;48.770;11.440;2023-02-28T17:13:46;8.00;;;7.00;;
78072;SDS011;67281;48.770;11.440;2023-02-28T17:16:19;12.47;;;6.97;;
78072;SDS011;67281;48.770;11.440;2023-02-28T17:18:49;9.53;;;7.33;;
78072;SDS011;67281;48.770;11.440;2023-02-28T17:21:17;9.97;;;7.30;;
78072;SDS011;67281;48.770;11.440;2023-02-28T17:23:44;9.20;;;6.60;;